createdAt,value
2018-10-09T00:02:08.022Z,102067.87
2018-10-09T00:04:36.498Z,102065.33
2018-10-09T00:07:04.774Z,102061.64
2018-10-09T00:09:33.069Z,102072.47
2018-10-09T00:12:01.334Z,102067.80
2018-10-09T00:14:29.602Z,102069.98
2018-10-09T00:16:57.898Z,102077.72
2018-10-09T00:19:26.167Z,102077.64
2018-10-09T00:21:54.415Z,102077.16
2018-10-09T00:24:22.753Z,102073.09
2018-10-09T00:26:51.030Z,102073.25
2018-10-09T00:29:19.507Z,102075.52
2018-10-09T00:31:47.803Z,102070.18
2018-10-09T00:34:16.079Z,102064.44
2018-10-09T00:36:44.374Z,102069.69
2018-10-09T00:39:12.741Z,102061.37
2018-10-09T00:41:41.026Z,102058.83
2018-10-09T00:44:09.317Z,102056.17
2018-10-09T00:46:37.661Z,102050.42
2018-10-09T00:49:07.206Z,102041.78
2018-10-09T00:51:35.497Z,102050.14
2018-10-09T00:54:03.938Z,102051.91
2018-10-09T00:56:32.217Z,102049.28
2018-10-09T00:59:00.493Z,102051.48
2018-10-09T01:01:29.998Z,102051.23
2018-10-09T01:04:00.323Z,102053.13
2018-10-09T01:06:28.654Z,102059.90
2018-10-09T01:08:56.954Z,102059.64
2018-10-09T01:11:25.222Z,102058.17
2018-10-09T01:13:53.513Z,102063.66
2018-10-09T01:16:21.923Z,102055.91
2018-10-09T01:18:50.205Z,102054.08
2018-10-09T01:21:18.469Z,102067.70
2018-10-09T01:23:46.837Z,102062.37
2018-10-09T01:26:15.111Z,102068.38
2018-10-09T01:28:43.378Z,102069.53
2018-10-09T01:31:11.717Z,102063.66
2018-10-09T01:33:39.997Z,102055.94
2018-10-09T01:36:08.374Z,102054.16
2018-10-09T01:38:36.859Z,102042.48
2018-10-09T01:41:05.126Z,102032.36
2018-10-09T01:43:33.478Z,102019.20
2018-10-09T01:46:01.750Z,102017.55
2018-10-09T01:48:30.030Z,102017.59
2018-10-09T01:50:58.334Z,102005.64
2018-10-09T01:53:27.681Z,102002.94
2018-10-09T01:55:55.945Z,102009.89
2018-10-09T01:58:24.222Z,102003.08
2018-10-09T02:00:52.486Z,102002.50
2018-10-09T02:03:20.855Z,101999.87
2018-10-09T02:05:49.131Z,101996.00
2018-10-09T02:08:17.405Z,102008.79
2018-10-09T02:10:45.701Z,101996.38
2018-10-09T02:13:13.986Z,101991.30
2018-10-09T02:15:43.291Z,101991.38
2018-10-09T02:18:11.589Z,101989.50
2018-10-09T02:20:39.877Z,101984.98
2018-10-09T02:23:08.150Z,101991.48
2018-10-09T02:25:36.466Z,101995.90
2018-10-09T02:28:04.781Z,101988.75
2018-10-09T02:30:33.078Z,101977.86
2018-10-09T02:33:01.741Z,101984.15
2018-10-09T02:35:30.066Z,101985.95
2018-10-09T02:37:58.530Z,101972.94
2018-10-09T02:40:26.873Z,101991.30
2018-10-09T02:42:55.162Z,101991.20
2018-10-09T02:45:23.546Z,101986.55
2018-10-09T02:47:51.846Z,101985.03
2018-10-09T02:50:20.134Z,101996.23
2018-10-09T02:52:48.439Z,102007.27
2018-10-09T02:55:16.746Z,102004.83
2018-10-09T02:57:45.038Z,102002.78
2018-10-09T03:00:13.371Z,102005.38
2018-10-09T03:02:41.682Z,102008.60
2018-10-09T03:05:09.986Z,102018.14
2018-10-09T03:07:38.298Z,102011.27
2018-10-09T03:10:06.629Z,102020.20
2018-10-09T03:12:34.918Z,102016.85
2018-10-09T03:15:03.257Z,102015.89
2018-10-09T03:17:31.521Z,102017.58
2018-10-09T03:19:59.809Z,102011.92
2018-10-09T03:22:28.134Z,102011.62
2018-10-09T03:24:56.429Z,101993.52
2018-10-09T03:27:25.048Z,102007.67
2018-10-09T03:29:53.354Z,102002.06
2018-10-09T03:32:21.642Z,102014.58
2018-10-09T03:34:49.928Z,102019.85
2018-10-09T03:37:18.224Z,102016.83
2018-10-09T03:39:46.516Z,102024.33
2018-10-09T03:42:14.831Z,102016.56
2018-10-09T03:44:43.136Z,102011.02
2018-10-09T03:47:11.438Z,102002.97
2018-10-09T03:49:39.939Z,102018.00
2018-10-09T03:52:08.230Z,102020.97
2018-10-09T03:54:36.534Z,102017.55
2018-10-09T03:57:05.265Z,102007.06
2018-10-09T03:59:34.590Z,102005.57
2018-10-09T04:02:03.146Z,102010.13
2018-10-09T04:04:31.512Z,102009.08
2018-10-09T04:06:59.829Z,101992.06
2018-10-09T04:09:28.204Z,101998.67
2018-10-09T04:11:56.502Z,102002.41
2018-10-09T04:14:24.809Z,102003.31
2018-10-09T04:16:53.086Z,101988.23
2018-10-09T04:19:21.437Z,101994.00
2018-10-09T04:21:49.730Z,101994.48
2018-10-09T04:24:18.038Z,101986.88
2018-10-09T04:26:46.367Z,101982.52
2018-10-09T04:29:19.676Z,101980.27
2018-10-09T04:31:47.982Z,101977.91
2018-10-09T04:34:16.263Z,101986.63
2018-10-09T04:36:44.560Z,101981.83
2018-10-09T04:39:16.093Z,101972.19
2018-10-09T04:41:44.387Z,101970.38
2018-10-09T04:44:12.681Z,101969.28
2018-10-09T04:46:40.991Z,101974.31
2018-10-09T04:49:09.314Z,101989.84
2018-10-09T04:51:37.594Z,101980.89
2018-10-09T04:54:05.946Z,101972.50
2018-10-09T04:56:34.223Z,101978.03
2018-10-09T04:59:02.548Z,101970.98
2018-10-09T05:01:30.849Z,101967.28
2018-10-09T05:03:59.187Z,101983.56
2018-10-09T05:06:27.489Z,101972.05
2018-10-09T05:08:55.777Z,101973.63
2018-10-09T05:11:24.102Z,101975.91
2018-10-09T05:13:52.412Z,101966.75
2018-10-09T05:16:20.693Z,101971.14
2018-10-09T05:18:48.989Z,101971.44
2018-10-09T05:21:17.274Z,101974.97
2018-10-09T05:23:45.607Z,101969.57
2018-10-09T05:26:13.970Z,101971.52
2018-10-09T05:28:42.286Z,101966.75
2018-10-09T05:31:11.735Z,101982.11
2018-10-09T05:35:09.106Z,101991.57
2018-10-09T05:37:37.477Z,101989.81
2018-10-09T05:40:05.870Z,101993.74
2018-10-09T05:42:34.186Z,101994.68
2018-10-09T05:45:02.482Z,101999.14
2018-10-09T05:47:30.813Z,102001.60
2018-10-09T05:49:59.138Z,101994.83
2018-10-09T05:52:27.494Z,101997.41
2018-10-09T05:54:55.746Z,101995.05
2018-10-09T05:57:24.057Z,101999.14
2018-10-09T05:59:53.002Z,102007.19
2018-10-09T06:02:21.304Z,102004.84
2018-10-09T06:04:49.638Z,102012.06
2018-10-09T06:07:17.956Z,102014.85
2018-10-09T06:09:46.250Z,102014.48
2018-10-09T06:12:15.687Z,102016.93
2018-10-09T06:14:43.998Z,102023.36
2018-10-09T06:17:12.310Z,102012.67
2018-10-09T06:19:40.657Z,102021.59
2018-10-09T06:22:09.037Z,102024.95
2018-10-09T06:24:37.398Z,102021.41
2018-10-09T06:27:05.747Z,102013.16
2018-10-09T06:29:35.499Z,102032.80
2018-10-09T06:32:03.869Z,102027.31
2018-10-09T06:34:32.176Z,102024.19
2018-10-09T06:37:00.509Z,102017.52
2018-10-09T06:39:29.841Z,102024.81
2018-10-09T06:41:58.170Z,102028.35
2018-10-09T06:44:26.495Z,102021.34
2018-10-09T06:46:54.793Z,102028.84
2018-10-09T06:49:23.151Z,102034.32
2018-10-09T06:51:51.458Z,102024.05
2018-10-09T06:54:19.788Z,102020.66
2018-10-09T06:56:48.034Z,102019.81
2018-10-09T06:59:16.321Z,102017.73
2018-10-09T07:01:45.646Z,102027.80
2018-10-09T07:04:13.934Z,102037.28
2018-10-09T07:06:43.249Z,102041.95
2018-10-09T07:09:12.225Z,102046.90
2018-10-09T07:11:40.579Z,102035.89
2018-10-09T07:14:08.863Z,102033.94
2018-10-09T07:16:37.173Z,102052.28
2018-10-09T07:19:06.580Z,102044.23
2018-10-09T07:21:34.893Z,102044.41
2018-10-09T07:24:03.257Z,102052.00
2018-10-09T07:26:32.678Z,102044.87
2018-10-09T07:29:00.971Z,102048.06
2018-10-09T07:31:29.266Z,102053.23
2018-10-09T07:33:57.573Z,102057.84
2018-10-09T07:36:25.886Z,102050.47
2018-10-09T07:38:54.179Z,102049.06
2018-10-09T07:41:23.362Z,102052.78
2018-10-09T07:43:51.725Z,102048.56
2018-10-09T07:46:19.983Z,102041.19
2018-10-09T07:48:48.294Z,102051.70
2018-10-09T07:51:16.635Z,102053.65
2018-10-09T07:53:44.939Z,102050.24
2018-10-09T07:56:13.638Z,102056.53
2018-10-09T07:58:41.992Z,102056.48
2018-10-09T08:01:10.263Z,102061.55
2018-10-09T08:04:42.581Z,102058.14
2018-10-09T08:07:11.886Z,102073.34
2018-10-09T08:09:40.191Z,102068.23
2018-10-09T08:12:08.550Z,102068.66
2018-10-09T08:14:36.878Z,102076.48
2018-10-09T08:17:05.191Z,102084.41
2018-10-09T08:19:33.482Z,102089.19
2018-10-09T08:22:01.802Z,102091.16
2018-10-09T08:24:30.120Z,102088.34
2018-10-09T08:26:58.442Z,102085.87
2018-10-09T08:29:26.767Z,102088.02
2018-10-09T08:31:55.266Z,102075.48
2018-10-09T08:34:23.725Z,102079.92
2018-10-09T08:36:52.905Z,102076.27
2018-10-09T08:39:22.315Z,102073.05
2018-10-09T08:41:50.618Z,102071.49
2018-10-09T08:44:18.918Z,102065.28
2018-10-09T08:46:47.306Z,102067.67
2018-10-09T08:49:16.178Z,102068.10
2018-10-09T08:51:44.527Z,102065.62
2018-10-09T08:54:12.825Z,102065.03
2018-10-09T08:56:41.135Z,102066.95
2018-10-09T08:59:09.482Z,102069.34
2018-10-09T09:01:37.807Z,102072.58
2018-10-09T09:04:06.510Z,102068.95
2018-10-09T09:06:34.807Z,102068.24
2018-10-09T09:09:03.426Z,102069.69
2018-10-09T09:11:31.731Z,102065.73
2018-10-09T09:14:00.079Z,102070.89
2018-10-09T09:16:28.381Z,102075.44
2018-10-09T09:18:56.670Z,102089.68
2018-10-09T09:21:26.006Z,102084.70
2018-10-09T09:23:54.466Z,102080.02
2018-10-09T09:26:22.801Z,102093.70
2018-10-09T09:28:51.078Z,102091.06
2018-10-09T09:31:19.701Z,102086.64
2018-10-09T09:33:47.998Z,102079.50
2018-10-09T09:36:16.333Z,102090.53
2018-10-09T09:38:44.650Z,102096.56
2018-10-09T09:41:13.081Z,102103.25
2018-10-09T09:43:41.366Z,102097.77
2018-10-09T09:46:09.724Z,102090.80
2018-10-09T09:48:39.090Z,102094.69
2018-10-09T09:51:07.381Z,102092.11
2018-10-09T09:53:36.794Z,102092.98
2018-10-09T09:56:05.087Z,102100.47
2018-10-09T09:58:34.589Z,102095.37
2018-10-09T10:01:10.030Z,102106.23
2018-10-09T10:03:40.765Z,102112.20
2018-10-09T10:06:11.195Z,102108.30
2018-10-09T10:08:40.314Z,102094.20
2018-10-09T10:11:08.695Z,102104.77
2018-10-09T10:13:37.041Z,102102.55
2018-10-09T10:16:05.343Z,102109.13
2018-10-09T10:18:33.700Z,102102.17
2018-10-09T10:21:03.278Z,102089.23
2018-10-09T10:23:31.590Z,102103.94
2018-10-09T10:25:59.966Z,102100.02
2018-10-09T10:28:29.447Z,102099.77
2018-10-09T10:30:57.786Z,102109.50
2018-10-09T10:33:27.138Z,102111.46
2018-10-09T10:35:55.510Z,102106.86
2018-10-09T10:38:24.102Z,102105.19
2018-10-09T10:40:52.479Z,102119.19
2018-10-09T10:43:20.858Z,102111.72
2018-10-09T10:45:49.214Z,102118.94
2018-10-09T10:48:17.530Z,102102.70
2018-10-09T10:50:47.058Z,102089.34
2018-10-09T10:53:15.426Z,102097.81
2018-10-09T10:55:43.784Z,102094.01
2018-10-09T10:58:13.719Z,102110.57
2018-10-09T11:00:42.082Z,102106.04
2018-10-09T11:03:11.454Z,102102.56
2018-10-09T11:05:40.832Z,102112.86
2018-10-09T11:08:09.163Z,102121.33
2018-10-09T11:10:37.462Z,102116.30
2018-10-09T11:13:05.779Z,102127.58
2018-10-09T11:15:36.122Z,102120.73
2018-10-09T11:18:04.433Z,102122.53
2018-10-09T11:20:32.710Z,102119.47
2018-10-09T11:23:01.222Z,102118.78
2018-10-09T11:25:29.514Z,102108.55
2018-10-09T11:27:57.826Z,102112.63
2018-10-09T11:30:26.158Z,102089.84
2018-10-09T11:32:54.450Z,102102.86
2018-10-09T11:35:26.218Z,102100.32
2018-10-09T11:37:58.000Z,102101.26
2018-10-09T11:40:26.512Z,102104.64
2018-10-09T11:42:56.932Z,102102.38
2018-10-09T11:45:25.190Z,102108.55
2018-10-09T11:47:53.582Z,102101.42
2018-10-09T11:50:21.890Z,102106.61
2018-10-09T11:52:50.406Z,102098.55
2018-10-09T11:55:18.705Z,102093.70
2018-10-09T11:57:47.012Z,102086.45
2018-10-09T12:00:15.370Z,102079.19
2018-10-09T12:02:43.721Z,102095.08
2018-10-09T12:05:12.061Z,102087.24
2018-10-09T12:07:40.614Z,102073.30
2018-10-09T12:10:08.906Z,102085.13
2018-10-09T12:12:37.214Z,102084.34
2018-10-09T12:15:06.035Z,102074.59
2018-10-09T12:17:34.346Z,102067.91
2018-10-09T12:20:02.657Z,102062.12
2018-10-09T12:22:31.062Z,102057.57
2018-10-09T12:24:59.353Z,102064.55
2018-10-09T12:27:28.510Z,102077.11
2018-10-09T12:29:56.938Z,102070.22
2018-10-09T12:32:25.238Z,102076.89
2018-10-09T12:34:54.542Z,102066.99
2018-10-09T12:37:22.913Z,102068.59
2018-10-09T12:39:51.207Z,102078.36
2018-10-09T12:42:19.571Z,102063.34
2018-10-09T12:44:47.914Z,102051.98
2018-10-09T12:47:16.226Z,102056.17
2018-10-09T12:49:44.607Z,102057.35
2018-10-09T12:52:12.925Z,102048.83
2018-10-09T12:54:41.257Z,102076.14
2018-10-09T12:57:09.723Z,102060.72
2018-10-09T12:59:38.035Z,102073.69
2018-10-09T13:02:07.403Z,102054.01
2018-10-09T13:04:35.698Z,102043.97
2018-10-09T13:07:04.034Z,102052.97
2018-10-09T13:09:32.335Z,102045.73
2018-10-09T13:12:00.630Z,102047.50
2018-10-09T13:14:28.955Z,102054.92
2018-10-09T13:16:57.246Z,102055.84
2018-10-09T13:19:25.590Z,102061.20
2018-10-09T13:21:54.164Z,102055.22
2018-10-09T13:24:22.191Z,102058.69
2018-10-09T13:26:50.496Z,102057.59
2018-10-09T13:29:19.006Z,102058.07
2018-10-09T13:31:49.090Z,102060.91
2018-10-09T13:34:17.797Z,102063.22
2018-10-09T13:36:46.187Z,102063.33
2018-10-09T13:39:14.469Z,102061.57
2018-10-09T13:41:42.753Z,102075.25
2018-10-09T13:44:11.223Z,102073.44
2018-10-09T13:47:42.196Z,102079.69
2018-10-09T13:50:11.590Z,102088.55
2018-10-09T13:52:39.990Z,102080.40
2018-10-09T13:55:08.281Z,102082.13
2018-10-09T13:57:36.886Z,102080.89
2018-10-09T14:00:05.215Z,102063.78
2018-10-09T14:02:33.550Z,102072.23
2018-10-09T14:05:01.853Z,102081.93
2018-10-09T14:07:30.146Z,102068.26
2018-10-09T14:09:58.498Z,102071.31
2018-10-09T14:12:26.772Z,102061.10
2018-10-09T14:14:55.116Z,102059.45
2018-10-09T14:17:23.591Z,102060.77
2018-10-09T14:19:51.910Z,102056.67
2018-10-09T14:22:20.275Z,102052.12
2018-10-09T14:24:48.531Z,102046.48
2018-10-09T14:27:16.844Z,102048.38
2018-10-09T14:29:46.190Z,102045.16
2018-10-09T14:32:14.515Z,102042.81
2018-10-09T14:34:42.856Z,102051.79
2018-10-09T14:37:12.255Z,102046.04
2018-10-09T14:39:41.695Z,102044.73
2018-10-09T14:42:10.151Z,102046.56
2018-10-09T14:44:38.522Z,102041.67
2018-10-09T14:47:06.878Z,102042.01
2018-10-09T14:49:35.197Z,102041.17
2018-10-09T14:52:03.515Z,102034.11
2018-10-09T14:54:33.031Z,102036.95
2018-10-09T14:57:01.351Z,102034.03
2018-10-09T14:59:29.642Z,102032.45
2018-10-09T15:01:58.012Z,102033.31
2018-10-09T15:04:26.327Z,102036.09
2018-10-09T15:06:54.701Z,102036.13
2018-10-09T15:09:23.201Z,102034.14
2018-10-09T15:11:51.561Z,102035.14
2018-10-09T15:14:19.854Z,102039.27
2018-10-09T15:16:48.353Z,102043.13
2018-10-09T15:19:16.618Z,102042.66
2018-10-09T15:21:44.925Z,102044.91
2018-10-09T15:24:13.254Z,102047.25
2018-10-09T15:26:41.546Z,102042.11
2018-10-09T15:29:11.939Z,102046.09
2018-10-09T15:31:40.178Z,102044.06
2018-10-09T15:34:08.494Z,102045.49
2018-10-09T15:36:36.794Z,102046.16
2018-10-09T15:39:08.532Z,102043.92
2018-10-09T15:41:36.897Z,102046.70
2018-10-09T15:44:05.448Z,102056.59
2018-10-09T15:46:34.988Z,102061.03
2018-10-09T15:49:05.298Z,102065.09
2018-10-09T15:51:33.646Z,102064.28
2018-10-09T15:54:02.166Z,102061.02
2018-10-09T15:56:30.477Z,102062.89
2018-10-09T15:58:58.847Z,102067.70
2018-10-09T16:01:27.164Z,102072.23
2018-10-09T16:03:55.507Z,102064.23
2018-10-09T16:06:23.768Z,102067.57
2018-10-09T16:08:53.154Z,102072.38
2018-10-09T16:11:21.454Z,102061.06
2018-10-09T16:13:49.746Z,102060.03
2018-10-09T16:16:18.422Z,102056.25
2018-10-09T16:18:46.714Z,102061.59
2018-10-09T16:21:15.032Z,102062.17
2018-10-09T16:23:43.358Z,102069.84
2018-10-09T16:26:11.654Z,102061.95
2018-10-09T16:28:39.938Z,102057.33
2018-10-09T16:31:08.226Z,102064.02
2018-10-09T16:33:36.660Z,102072.61
2018-10-09T16:36:04.949Z,102070.66
2018-10-09T16:38:33.278Z,102070.13
2018-10-09T16:41:01.628Z,102080.59
2018-10-09T16:43:31.954Z,102077.06
2018-10-09T16:46:01.346Z,102083.56
2018-10-09T16:48:29.649Z,102082.34
2018-10-09T16:50:57.965Z,102082.47
2018-10-09T16:53:27.341Z,102085.97
2018-10-09T16:55:55.766Z,102088.50
2018-10-09T16:58:24.061Z,102089.27
2018-10-09T17:00:52.390Z,102090.13
2018-10-09T17:03:20.691Z,102088.50
2018-10-09T17:05:48.986Z,102092.70
2018-10-09T17:08:17.265Z,102097.77
2018-10-09T17:10:45.797Z,102093.72
2018-10-09T17:13:14.126Z,102094.56
2018-10-09T17:15:42.451Z,102095.79
2018-10-09T17:18:10.717Z,102101.29
2018-10-09T17:20:39.022Z,102094.25
2018-10-09T17:23:07.720Z,102099.05
2018-10-09T17:25:37.052Z,102101.20
2018-10-09T17:28:05.426Z,102103.84
2018-10-09T17:30:33.715Z,102100.14
2018-10-09T17:33:02.031Z,102107.44
2018-10-09T17:35:30.334Z,102108.18
2018-10-09T17:37:58.635Z,102110.69
2018-10-09T17:40:26.932Z,102112.27
2018-10-09T17:42:55.251Z,102106.86
2018-10-09T17:45:23.550Z,102110.70
2018-10-09T17:47:51.826Z,102109.03
2018-10-09T17:50:20.150Z,102110.22
2018-10-09T17:52:48.458Z,102114.78
2018-10-09T17:55:16.763Z,102110.91
2018-10-09T17:57:45.141Z,102115.23
2018-10-09T18:00:13.492Z,102115.13
2018-10-09T18:02:41.795Z,102116.20
2018-10-09T18:05:11.340Z,102119.91
2018-10-09T18:07:39.655Z,102122.43
2018-10-09T18:10:07.958Z,102117.38
2018-10-09T18:12:36.725Z,102121.23
2018-10-09T18:15:05.315Z,102122.03
2018-10-09T18:17:33.605Z,102119.88
2018-10-09T18:20:01.913Z,102126.59
2018-10-09T18:22:30.218Z,102120.73
2018-10-09T18:24:58.518Z,102128.95
2018-10-09T18:27:26.830Z,102127.90
2018-10-09T18:29:55.174Z,102129.95
2018-10-09T18:32:23.490Z,102129.95
2018-10-09T18:34:51.826Z,102134.84
2018-10-09T18:37:20.142Z,102136.85
2018-10-09T18:39:48.438Z,102148.84
2018-10-09T18:42:16.985Z,102144.38
2018-10-09T18:44:45.290Z,102146.66
2018-10-09T18:47:50.490Z,102147.22
2018-10-09T18:50:18.798Z,102148.91
2018-10-09T18:52:47.081Z,102142.29
2018-10-09T18:55:16.866Z,102145.64
2018-10-09T18:57:45.550Z,102143.01
2018-10-09T19:00:14.406Z,102149.98
2018-10-09T19:02:42.701Z,102151.87
2018-10-09T19:05:11.498Z,102153.78
2018-10-09T19:07:40.249Z,102156.30
2018-10-09T19:10:09.180Z,102154.83
2018-10-09T19:12:37.486Z,102154.05
2018-10-09T19:15:06.042Z,102152.61
2018-10-09T19:17:34.338Z,102155.00
2018-10-09T19:20:02.665Z,102153.64
2018-10-09T19:22:32.970Z,102151.49
2018-10-09T19:25:01.281Z,102152.25
2018-10-09T19:27:30.589Z,102155.80
2018-10-09T19:29:58.914Z,102152.84
2018-10-09T19:32:28.399Z,102153.80
2018-10-09T19:34:57.662Z,102161.94
2018-10-09T19:37:25.991Z,102164.96
2018-10-09T19:39:54.474Z,102170.35
2018-10-09T19:42:22.810Z,102171.54
2018-10-09T19:44:52.097Z,102168.91
2018-10-09T19:47:20.410Z,102166.64
2018-10-09T19:49:48.878Z,102172.02
2018-10-09T19:52:17.173Z,102173.81
2018-10-09T19:54:45.458Z,102174.38
2018-10-09T19:57:13.790Z,102169.22
2018-10-09T19:59:42.103Z,102169.30
2018-10-09T20:02:10.437Z,102174.31
2018-10-09T20:04:39.106Z,102172.86
2018-10-09T20:07:08.446Z,102170.43
2018-10-09T20:09:36.758Z,102175.09
2018-10-09T20:12:05.262Z,102176.51
2018-10-09T20:14:33.691Z,102176.70
2018-10-09T20:17:02.141Z,102177.66
2018-10-09T20:19:30.705Z,102175.81
2018-10-09T20:21:59.082Z,102176.88
2018-10-09T20:24:27.474Z,102174.61
2018-10-09T20:26:56.150Z,102176.27
2018-10-09T20:29:24.563Z,102176.93
2018-10-09T20:31:52.863Z,102179.76
2018-10-09T20:34:21.179Z,102178.92
2018-10-09T20:36:49.495Z,102182.39
2018-10-09T20:39:17.880Z,102180.59
2018-10-09T20:41:46.186Z,102177.05
2018-10-09T20:44:14.486Z,102174.41
2018-10-09T20:46:42.923Z,102182.39
2018-10-09T20:49:12.386Z,102179.26
2018-10-09T20:51:40.882Z,102182.37
2018-10-09T20:54:09.353Z,102180.94
2018-10-09T20:56:37.654Z,102182.98
2018-10-09T20:59:06.702Z,102185.02
2018-10-09T21:01:35.014Z,102188.17
2018-10-09T21:04:03.354Z,102182.98
2018-10-09T21:06:31.695Z,102178.50
2018-10-09T21:08:59.994Z,102185.25
2018-10-09T21:11:28.317Z,102190.56
2018-10-09T21:13:56.630Z,102184.58
2018-10-09T21:16:24.938Z,102181.36
2018-10-09T21:18:53.261Z,102191.28
2018-10-09T21:21:21.670Z,102188.16
2018-10-09T21:23:49.959Z,102186.25
2018-10-09T21:26:19.249Z,102184.71
2018-10-09T21:28:47.651Z,102189.02
2018-10-09T21:31:15.974Z,102182.45
2018-10-09T21:33:44.266Z,102179.51
2018-10-09T21:36:12.554Z,102176.16
2018-10-09T21:38:40.962Z,102173.47
2018-10-09T21:41:09.265Z,102178.98
2018-10-09T21:43:37.574Z,102179.45
2018-10-09T21:46:05.891Z,102176.09
2018-10-09T21:48:34.210Z,102178.73
2018-10-09T21:51:02.522Z,102174.95
2018-10-09T21:53:30.819Z,102182.45
2018-10-09T21:55:59.141Z,102184.71
2018-10-09T21:58:28.439Z,102186.25
2018-10-09T22:01:02.203Z,102185.72
2018-10-09T22:03:30.499Z,102186.92
2018-10-09T22:05:59.815Z,102186.08
2018-10-09T22:08:28.204Z,102190.03
2018-10-09T22:10:56.514Z,102188.71
2018-10-09T22:13:25.246Z,102191.20
2018-10-09T22:15:53.558Z,102192.15
2018-10-09T22:18:21.890Z,102193.24
2018-10-09T22:20:50.210Z,102197.23
2018-10-09T22:23:18.515Z,102201.36
2018-10-09T22:25:46.986Z,102203.25
2018-10-09T22:28:15.303Z,102205.41
2018-10-09T22:30:43.680Z,102207.02
2018-10-09T22:33:11.986Z,102209.87
2018-10-09T22:35:40.282Z,102210.87
2018-10-09T22:38:08.605Z,102216.17
2018-10-09T22:40:36.921Z,102218.98
2018-10-09T22:43:05.357Z,102214.09
2018-10-09T22:45:33.706Z,102216.58
2018-10-09T22:48:02.035Z,102211.14
2018-10-09T22:50:30.346Z,102210.67
2018-10-09T22:52:58.655Z,102205.92
2018-10-09T22:55:27.349Z,102207.34
2018-10-09T22:57:56.678Z,102211.61
2018-10-09T23:00:24.998Z,102212.75
2018-10-09T23:02:53.654Z,102207.81
2018-10-09T23:05:22.011Z,102213.14
2018-10-09T23:07:50.326Z,102222.16
2018-10-09T23:13:09.358Z,102230.62
2018-10-09T23:15:38.873Z,102233.79
2018-10-09T23:20:57.778Z,102233.48
2018-10-09T23:26:16.446Z,102239.49
2018-10-09T23:28:45.810Z,102236.41
2018-10-09T23:31:14.126Z,102231.53
2018-10-09T23:33:42.610Z,102228.64
2018-10-09T23:36:10.906Z,102226.20
2018-10-09T23:38:39.214Z,102227.51
2018-10-09T23:41:07.934Z,102230.69
2018-10-09T23:43:37.318Z,102227.78
2018-10-09T23:46:05.601Z,102225.81
2018-10-09T23:49:38.217Z,102232.76
2018-10-09T23:52:06.594Z,102236.17
2018-10-09T23:54:34.980Z,102235.25
2018-10-09T23:57:03.387Z,102234.88
2018-10-09T23:59:31.747Z,102238.05
